Time;durP1;ratioP1;P1;durP2;ratioP2;P2;SDS_P1;SDS_P2;PMS_P1;PMS_P2;Temp;Humidity;BMP_temperature;BMP_pressure;BME280_temperature;BME280_humidity;BME280_pressure;Samples;Min_cycle;Max_cycle;Signal;HPM_P1;HPM_P2
2022/11/02 00:01:41;;;;;;;;;;;18.90;90.40;;;;;;5123852;27;19955;-65
2022/11/02 00:04:06;;;;;;;;;;;18.80;90.50;;;;;;5123603;27;19924;-65
2022/11/02 00:06:32;;;;;;;;;;;18.90;90.40;;;;;;5118442;28;19931;-66
2022/11/02 00:08:58;;;;;;;;;;;18.90;90.50;;;;;;5099734;28;19931;-66
2022/11/02 00:11:23;;;;;;;;;;;18.70;90.40;;;;;;5116226;27;19924;-65
2022/11/02 00:13:49;;;;;;;;;;;18.70;90.50;;;;;;5135449;27;19930;-66
2022/11/02 00:16:14;;;;;;;;;;;18.90;90.50;;;;;;5138756;27;20357;-65
2022/11/02 00:18:40;;;;;;;;;;;18.80;90.50;;;;;;5125823;27;19927;-66
2022/11/02 00:21:06;;;;;;;;;;;18.80;90.50;;;;;;5136301;27;19929;-66
2022/11/02 00:23:31;;;;;;;;;;;18.80;90.40;;;;;;5138310;27;19930;-66
2022/11/02 00:25:57;;;;;;;;;;;19.00;90.60;;;;;;5138565;27;19970;-66
2022/11/02 00:28:22;;;;;;;;;;;18.90;90.50;;;;;;5136977;27;19962;-66
2022/11/02 00:30:48;;;;;;;;;;;18.70;90.40;;;;;;5119858;27;19930;-66
2022/11/02 00:33:14;;;;;;;;;;;18.60;90.40;;;;;;5137183;27;20406;-66
2022/11/02 00:35:39;;;;;;;;;;;18.70;90.50;;;;;;5137146;27;19927;-66
2022/11/02 00:38:05;;;;;;;;;;;18.90;90.60;;;;;;5136770;27;19930;-66
2022/11/02 00:40:30;;;;;;;;;;;18.70;90.60;;;;;;5132064;27;19931;-66
2022/11/02 00:42:56;;;;;;;;;;;18.50;90.40;;;;;;5135557;27;19923;-66
2022/11/02 00:45:22;;;;;;;;;;;18.90;90.60;;;;;;5117263;27;19924;-66
2022/11/02 00:47:48;;;;;;;;;;;18.60;90.50;;;;;;5136077;27;19970;-65
2022/11/02 00:50:13;;;;;;;;;;;18.70;90.70;;;;;;5119685;27;19931;-66
2022/11/02 00:52:39;;;;;;;;;;;18.60;90.60;;;;;;5134282;27;19923;-65
2022/11/02 00:55:09;;;;;;;;;;;18.80;90.60;;;;;;5136540;27;19923;-66
2022/11/02 00:57:34;;;;;;;;;;;18.70;90.00;;;;;;5119342;27;20350;-66
2022/11/02 01:00:00;;;;;;;;;;;18.80;90.60;;;;;;5119319;27;19967;-65
2022/11/02 01:02:26;;;;;;;;;;;18.80;90.60;;;;;;5135108;27;20273;-66
2022/11/02 01:04:51;;;;;;;;;;;19.00;90.60;;;;;;5114842;28;19986;-66
2022/11/02 01:07:17;;;;;;;;;;;19.00;90.60;;;;;;5114419;28;19931;-65
2022/11/02 01:09:42;;;;;;;;;;;18.70;90.50;;;;;;5098692;28;19924;-66
2022/11/02 01:12:08;;;;;;;;;;;19.00;90.70;;;;;;5103189;28;20270;-65
2022/11/02 01:14:34;;;;;;;;;;;18.70;90.60;;;;;;5117605;27;19923;-65
2022/11/02 01:17:00;;;;;;;;;;;18.70;90.60;;;;;;5097802;27;19927;-66
2022/11/02 01:19:25;;;;;;;;;;;18.90;90.60;;;;;;5101899;27;20284;-65
2022/11/02 01:21:51;;;;;;;;;;;18.90;90.60;;;;;;5115006;27;20018;-66
2022/11/02 01:24:17;;;;;;;;;;;19.10;90.70;;;;;;5135189;27;19924;-66
2022/11/02 01:26:42;;;;;;;;;;;19.20;90.80;;;;;;5136152;27;20296;-65
2022/11/02 01:29:08;;;;;;;;;;;18.90;90.70;;;;;;5137016;27;20380;-65
2022/11/02 01:31:33;;;;;;;;;;;18.80;91.00;;;;;;5135085;27;19927;-65
2022/11/02 01:33:59;;;;;;;;;;;19.00;90.80;;;;;;5127189;27;19928;-65
2022/11/02 01:36:25;;;;;;;;;;;18.70;90.70;;;;;;5135963;27;19924;-65
2022/11/02 01:38:50;;;;;;;;;;;18.80;90.70;;;;;;5136098;27;20265;-66
2022/11/02 01:41:16;;;;;;;;;;;18.90;90.80;;;;;;5118338;27;20372;-66
2022/11/02 01:43:42;;;;;;;;;;;19.00;90.80;;;;;;5133907;27;19923;-66
2022/11/02 01:46:11;;;;;;;;;;;19.00;91.00;;;;;;5134018;27;19975;-65
2022/11/02 01:48:37;;;;;;;;;;;18.50;90.20;;;;;;5122293;27;19923;-66
2022/11/02 01:51:08;;;;;;;;;;;18.80;90.80;;;;;;5116316;28;19935;-65
2022/11/02 01:53:34;;;;;;;;;;;19.00;90.40;;;;;;5116496;27;19928;-65
2022/11/02 01:56:00;;;;;;;;;;;19.00;91.00;;;;;;5097798;28;19934;-66
2022/11/02 01:58:25;;;;;;;;;;;18.70;90.90;;;;;;5116255;28;19931;-66
2022/11/02 02:00:51;;;;;;;;;;;18.80;90.90;;;;;;5116057;27;20292;-65
2022/11/02 02:03:17;;;;;;;;;;;18.80;90.90;;;;;;5124803;27;19920;-65
2022/11/02 02:05:44;;;;;;;;;;;19.00;91.10;;;;;;5135140;27;19923;-66
2022/11/02 02:08:10;;;;;;;;;;;18.90;91.10;;;;;;5096972;28;20022;-66
2022/11/02 02:10:35;;;;;;;;;;;18.90;91.00;;;;;;5098455;27;20011;-66
2022/11/02 02:13:02;;;;;;;;;;;19.10;91.10;;;;;;5133137;27;19924;-65
2022/11/02 02:15:32;;;;;;;;;;;18.90;91.10;;;;;;5117764;27;19975;-65
2022/11/02 02:18:00;;;;;;;;;;;18.90;91.10;;;;;;5131932;27;19923;-66
2022/11/02 02:20:26;;;;;;;;;;;18.90;91.10;;;;;;5097383;28;19963;-66
2022/11/02 02:23:10;;;;;;;;;;;18.90;91.10;;;;;;5123291;27;19971;-66
2022/11/02 02:25:48;;;;;;;;;;;18.70;90.50;;;;;;5136263;27;19923;-65
2022/11/02 02:28:32;;;;;;;;;;;18.90;90.60;;;;;;5128350;27;19931;-65
2022/11/02 02:30:59;;;;;;;;;;;18.70;90.80;;;;;;5121873;27;20296;-67
2022/11/02 02:33:32;;;;;;;;;;;18.80;91.20;;;;;;5113030;27;19924;-66
2022/11/02 02:35:58;;;;;;;;;;;19.00;90.60;;;;;;5098237;27;19927;-66
2022/11/02 02:38:26;;;;;;;;;;;18.70;91.20;;;;;;5135176;27;20280;-65
2022/11/02 02:40:55;;;;;;;;;;;18.60;91.20;;;;;;5134286;27;19929;-66
2022/11/02 02:43:23;;;;;;;;;;;18.60;90.60;;;;;;5133557;27;19923;-65
2022/11/02 02:45:51;;;;;;;;;;;18.80;91.20;;;;;;5115769;27;20336;-66
2022/11/02 02:48:20;;;;;;;;;;;18.50;91.20;;;;;;5116490;27;19923;-66
2022/11/02 02:50:51;;;;;;;;;;;18.90;91.30;;;;;;5117144;27;19927;-66
2022/11/02 02:53:23;;;;;;;;;;;18.80;90.70;;;;;;5133544;27;19924;-66
2022/11/02 02:55:49;;;;;;;;;;;18.60;90.60;;;;;;5117051;27;19977;-66
2022/11/02 02:58:22;;;;;;;;;;;18.60;91.20;;;;;;5134212;27;19923;-66
2022/11/02 03:00:47;;;;;;;;;;;18.80;90.70;;;;;;5116995;27;19924;-66
2022/11/02 03:03:16;;;;;;;;;;;18.70;91.20;;;;;;5121266;27;20026;-65
2022/11/02 03:05:42;;;;;;;;;;;18.60;90.70;;;;;;5123163;27;19930;-67
2022/11/02 03:08:11;;;;;;;;;;;18.80;91.30;;;;;;5113792;28;19924;-66
2022/11/02 03:10:43;;;;;;;;;;;18.40;90.60;;;;;;5114527;28;19976;-66
2022/11/02 03:13:10;;;;;;;;;;;18.50;90.70;;;;;;5114498;27;20322;-66
2022/11/02 03:15:42;;;;;;;;;;;18.30;91.30;;;;;;5096276;28;19977;-66
2022/11/02 03:18:26;;;;;;;;;;;18.70;90.80;;;;;;5097193;28;20446;-65
2022/11/02 03:21:03;;;;;;;;;;;18.60;90.80;;;;;;5113627;27;19968;-66
2022/11/02 03:23:37;;;;;;;;;;;18.80;90.80;;;;;;5113004;27;19924;-65
2022/11/02 03:26:13;;;;;;;;;;;18.80;90.80;;;;;;5096512;28;19924;-66
2022/11/02 03:28:38;;;;;;;;;;;18.90;90.90;;;;;;5096209;28;19923;-66
2022/11/02 03:31:09;;;;;;;;;;;18.80;91.30;;;;;;5113852;28;19973;-66
2022/11/02 03:33:36;;;;;;;;;;;18.80;90.80;;;;;;5113147;28;20388;-66
2022/11/02 03:36:05;;;;;;;;;;;18.80;91.40;;;;;;5117457;28;19946;-66
2022/11/02 03:38:31;;;;;;;;;;;18.40;90.70;;;;;;5135369;28;19924;-66
2022/11/02 03:40:57;;;;;;;;;;;18.40;91.30;;;;;;5134051;28;20360;-66
2022/11/02 03:43:23;;;;;;;;;;;18.80;91.30;;;;;;5132872;28;19931;-65
2022/11/02 03:45:50;;;;;;;;;;;18.70;91.30;;;;;;5135076;27;19924;-66
2022/11/02 03:48:18;;;;;;;;;;;18.50;91.40;;;;;;5132143;28;19924;-66
2022/11/02 03:50:48;;;;;;;;;;;18.60;90.90;;;;;;5116147;28;19923;-66
2022/11/02 03:53:16;;;;;;;;;;;18.40;90.70;;;;;;5114543;28;20019;-67
2022/11/02 03:55:44;;;;;;;;;;;18.50;91.00;;;;;;5113161;28;20292;-66
2022/11/02 03:58:10;;;;;;;;;;;18.50;91.30;;;;;;5124420;28;20313;-65
2022/11/02 04:00:36;;;;;;;;;;;18.60;91.30;;;;;;5135217;27;19930;-65
2022/11/02 04:03:03;;;;;;;;;;;18.40;91.20;;;;;;5116182;28;19930;-65
2022/11/02 04:05:32;;;;;;;;;;;18.30;91.10;;;;;;5132366;28;20290;-67
2022/11/02 04:16:10;;;;;;;;;;;18.60;90.90;;;;;;5118542;28;19934;-65
2022/11/02 04:21:20;;;;;;;;;;;18.10;90.70;;;;;;5132550;28;20014;-65
2022/11/02 04:26:30;;;;;;;;;;;18.60;90.80;;;;;;5119737;28;19979;-66
2022/11/02 04:28:55;;;;;;;;;;;18.50;91.20;;;;;;5132703;28;20321;-66
2022/11/02 04:31:21;;;;;;;;;;;18.50;91.20;;;;;;5134222;28;19987;-66
2022/11/02 04:33:46;;;;;;;;;;;18.50;91.20;;;;;;5133055;28;20013;-66
2022/11/02 04:36:12;;;;;;;;;;;18.40;91.20;;;;;;5132331;28;19945;-66
2022/11/02 04:38:41;;;;;;;;;;;18.30;91.10;;;;;;5115513;28;19931;-65
2022/11/02 04:43:51;;;;;;;;;;;18.30;91.10;;;;;;5135579;27;20052;-65
2022/11/02 04:46:17;;;;;;;;;;;18.40;91.10;;;;;;5147075;27;20010;-65
2022/11/02 04:48:43;;;;;;;;;;;18.40;91.00;;;;;;5138228;27;19938;-65
2022/11/02 04:51:08;;;;;;;;;;;18.40;91.00;;;;;;5136634;27;19932;-66
2022/11/02 04:53:34;;;;;;;;;;;18.50;91.10;;;;;;5130455;27;20320;-65
2022/11/02 04:55:59;;;;;;;;;;;18.40;91.10;;;;;;5116959;27;19924;-65
2022/11/02 04:58:25;;;;;;;;;;;18.50;91.10;;;;;;5116177;28;19924;-65
2022/11/02 05:00:51;;;;;;;;;;;18.20;91.00;;;;;;5131144;27;19962;-66
2022/11/02 05:03:16;;;;;;;;;;;18.30;91.10;;;;;;5135905;27;20373;-65
2022/11/02 05:05:42;;;;;;;;;;;18.40;91.00;;;;;;5135542;27;19924;-65
2022/11/02 05:08:08;;;;;;;;;;;18.20;91.00;;;;;;5131697;27;19965;-65
2022/11/02 05:10:33;;;;;;;;;;;18.50;91.00;;;;;;5126289;27;19927;-66
2022/11/02 05:12:59;;;;;;;;;;;18.40;91.00;;;;;;5120880;27;19996;-68
2022/11/02 05:15:25;;;;;;;;;;;18.30;91.00;;;;;;5116627;28;20377;-68
2022/11/02 05:17:50;;;;;;;;;;;18.40;91.00;;;;;;5116175;27;19984;-68
2022/11/02 05:20:16;;;;;;;;;;;18.70;91.10;;;;;;5099967;28;19976;-68
2022/11/02 05:22:41;;;;;;;;;;;18.30;91.10;;;;;;5123172;27;19924;-68
2022/11/02 05:25:10;;;;;;;;;;;18.40;91.10;;;;;;5135719;27;19959;-68
2022/11/02 05:27:36;;;;;;;;;;;17.90;90.90;;;;;;5118823;27;19927;-68
2022/11/02 05:30:02;;;;;;;;;;;18.40;90.80;;;;;;5116070;27;19923;-67
2022/11/02 05:32:28;;;;;;;;;;;18.20;90.80;;;;;;5109866;28;19927;-68
2022/11/02 05:34:54;;;;;;;;;;;18.20;90.80;;;;;;5118957;27;19924;-68
2022/11/02 05:37:19;;;;;;;;;;;18.30;90.80;;;;;;5132623;27;19927;-67
2022/11/02 05:39:45;;;;;;;;;;;18.30;90.80;;;;;;5137461;27;20342;-68
2022/11/02 05:42:10;;;;;;;;;;;18.30;91.00;;;;;;5134419;27;19924;-67
2022/11/02 05:44:36;;;;;;;;;;;18.30;91.00;;;;;;5118372;27;19923;-67
2022/11/02 05:47:02;;;;;;;;;;;18.30;90.80;;;;;;5135260;27;19969;-68
2022/11/02 05:49:27;;;;;;;;;;;18.30;90.80;;;;;;5135503;27;20273;-68
2022/11/02 05:51:53;;;;;;;;;;;18.30;90.80;;;;;;5129034;27;19966;-68
2022/11/02 05:54:19;;;;;;;;;;;18.30;90.80;;;;;;5100769;27;19935;-68
2022/11/02 05:56:44;;;;;;;;;;;18.20;91.00;;;;;;5135318;27;19983;-68
2022/11/02 05:59:10;;;;;;;;;;;18.30;90.80;;;;;;5135566;27;20018;-67
2022/11/02 06:01:36;;;;;;;;;;;18.50;90.90;;;;;;5131778;27;20389;-68
2022/11/02 06:04:02;;;;;;;;;;;18.60;91.10;;;;;;5131091;27;20437;-68
2022/11/02 06:06:27;;;;;;;;;;;18.40;91.00;;;;;;5118183;27;19969;-68
2022/11/02 06:08:53;;;;;;;;;;;18.10;90.90;;;;;;5129833;27;20365;-68
2022/11/02 06:11:19;;;;;;;;;;;18.30;91.00;;;;;;5130274;27;19932;-67
2022/11/02 06:13:44;;;;;;;;;;;18.40;91.20;;;;;;5122666;27;20233;-68
2022/11/02 06:16:10;;;;;;;;;;;19.20;91.30;;;;;;5114660;28;19924;-65
2022/11/02 06:18:36;;;;;;;;;;;18.00;91.00;;;;;;5113418;28;19936;-66
2022/11/02 06:21:02;;;;;;;;;;;18.30;91.30;;;;;;5116193;28;20056;-67
2022/11/02 06:23:27;;;;;;;;;;;18.00;91.10;;;;;;5114649;28;19927;-65
2022/11/02 06:25:54;;;;;;;;;;;18.10;91.20;;;;;;5111181;28;20019;-65
2022/11/02 06:28:19;;;;;;;;;;;18.40;91.30;;;;;;5101232;28;19934;-65
2022/11/02 06:30:45;;;;;;;;;;;18.10;91.10;;;;;;5097167;28;19923;-66
2022/11/02 06:33:11;;;;;;;;;;;17.90;91.00;;;;;;5115594;28;19923;-65
2022/11/02 06:35:36;;;;;;;;;;;18.20;91.10;;;;;;5113340;28;19923;-66
2022/11/02 06:38:02;;;;;;;;;;;18.20;91.20;;;;;;5110949;28;19935;-65
2022/11/02 06:40:28;;;;;;;;;;;18.40;91.20;;;;;;5093669;28;20281;-65
2022/11/02 06:42:54;;;;;;;;;;;18.10;91.00;;;;;;5077443;28;19931;-66
2022/11/02 06:45:19;;;;;;;;;;;18.30;91.10;;;;;;5093328;28;19928;-65
2022/11/02 06:47:45;;;;;;;;;;;18.10;91.40;;;;;;5105175;28;19931;-66
2022/11/02 06:50:11;;;;;;;;;;;18.30;91.20;;;;;;5090097;28;19923;-68
2022/11/02 06:52:41;;;;;;;;;;;18.30;91.20;;;;;;5112778;28;19927;-67
2022/11/02 06:55:07;;;;;;;;;;;18.40;91.30;;;;;;5096700;28;20416;-67
2022/11/02 06:57:35;;;;;;;;;;;18.20;91.10;;;;;;5115147;28;19967;-67
2022/11/02 07:00:03;;;;;;;;;;;18.30;90.60;;;;;;5109938;28;19924;-66
2022/11/02 07:02:29;;;;;;;;;;;18.30;91.30;;;;;;5108934;28;19982;-66
2022/11/02 07:04:55;;;;;;;;;;;18.30;91.00;;;;;;5095587;28;19982;-66
2022/11/02 07:07:21;;;;;;;;;;;18.40;91.40;;;;;;5096469;28;19977;-66
2022/11/02 07:09:46;;;;;;;;;;;18.10;91.00;;;;;;5096764;28;20031;-66
2022/11/02 07:12:12;;;;;;;;;;;18.50;91.00;;;;;;5085074;28;20364;-66
2022/11/02 07:14:38;;;;;;;;;;;18.40;91.20;;;;;;5122039;27;19924;-66
2022/11/02 07:17:03;;;;;;;;;;;18.30;91.00;;;;;;5118612;27;19923;-66
2022/11/02 07:19:29;;;;;;;;;;;18.50;91.20;;;;;;5133785;27;19976;-66
2022/11/02 07:21:55;;;;;;;;;;;18.30;91.20;;;;;;5122849;27;19983;-67
2022/11/02 07:24:20;;;;;;;;;;;18.60;91.20;;;;;;5134346;27;19920;-66
2022/11/02 07:26:49;;;;;;;;;;;18.50;91.20;;;;;;5134033;27;19924;-66
2022/11/02 07:29:15;;;;;;;;;;;18.60;90.70;;;;;;5116914;27;20028;-65
2022/11/02 07:31:41;;;;;;;;;;;18.50;91.20;;;;;;5127262;27;20044;-65
2022/11/02 07:34:06;;;;;;;;;;;18.30;91.10;;;;;;5133486;27;19949;-65
2022/11/02 07:36:32;;;;;;;;;;;18.60;91.20;;;;;;5134451;27;19931;-66
2022/11/02 07:38:58;;;;;;;;;;;18.40;91.10;;;;;;5118380;27;19923;-66
2022/11/02 07:41:23;;;;;;;;;;;18.80;91.20;;;;;;5114335;28;20012;-66
2022/11/02 07:43:49;;;;;;;;;;;18.60;91.10;;;;;;5114776;28;20006;-66
2022/11/02 07:46:15;;;;;;;;;;;18.80;91.00;;;;;;5114156;28;19931;-66
2022/11/02 07:48:40;;;;;;;;;;;18.60;91.00;;;;;;5121706;28;20021;-66
2022/11/02 07:51:07;;;;;;;;;;;18.70;91.10;;;;;;5125523;28;19930;-66
2022/11/02 07:53:33;;;;;;;;;;;18.70;91.20;;;;;;5124129;28;20344;-67
2022/11/02 07:56:01;;;;;;;;;;;18.60;91.20;;;;;;5134526;27;20392;-67
2022/11/02 07:58:27;;;;;;;;;;;18.70;90.90;;;;;;5132458;28;19923;-66
2022/11/02 08:00:55;;;;;;;;;;;18.90;91.00;;;;;;5124152;28;19923;-67
2022/11/02 08:03:21;;;;;;;;;;;18.60;91.00;;;;;;5112720;28;19931;-66
2022/11/02 08:05:47;;;;;;;;;;;18.50;91.00;;;;;;5113065;28;19924;-66
2022/11/02 08:08:13;;;;;;;;;;;18.40;90.90;;;;;;5123849;28;20420;-66
2022/11/02 08:10:39;;;;;;;;;;;18.80;91.20;;;;;;5118041;28;20387;-67
2022/11/02 08:13:05;;;;;;;;;;;18.50;91.00;;;;;;5116002;28;19930;-67
2022/11/02 08:15:30;;;;;;;;;;;18.70;91.10;;;;;;5116036;27;19923;-67
2022/11/02 08:18:00;;;;;;;;;;;18.50;90.90;;;;;;5138537;27;19978;-67
2022/11/02 08:20:25;;;;;;;;;;;18.90;90.60;;;;;;5133456;27;20368;-67
2022/11/02 08:22:51;;;;;;;;;;;18.50;91.00;;;;;;5137161;27;19923;-67
2022/11/02 08:25:17;;;;;;;;;;;18.60;91.00;;;;;;5130542;27;19969;-67
2022/11/02 08:27:42;;;;;;;;;;;18.70;91.10;;;;;;5122831;27;19955;-66
2022/11/02 08:30:08;;;;;;;;;;;18.80;91.00;;;;;;5137219;27;20273;-68
2022/11/02 08:32:34;;;;;;;;;;;18.40;90.90;;;;;;5137146;27;19983;-67
2022/11/02 08:35:00;;;;;;;;;;;18.80;91.10;;;;;;5136898;27;19927;-67
2022/11/02 08:37:25;;;;;;;;;;;18.80;91.00;;;;;;5119720;27;19968;-67
2022/11/02 08:39:51;;;;;;;;;;;18.70;91.20;;;;;;5138035;27;20003;-67
2022/11/02 08:42:17;;;;;;;;;;;18.70;91.10;;;;;;5135581;27;19923;-68
2022/11/02 08:44:43;;;;;;;;;;;19.20;91.10;;;;;;5136768;27;20075;-68
2022/11/02 08:47:08;;;;;;;;;;;19.10;91.10;;;;;;5097967;28;20007;-67
2022/11/02 08:49:34;;;;;;;;;;;19.00;91.00;;;;;;5124310;27;20333;-67
2022/11/02 08:52:00;;;;;;;;;;;18.70;90.80;;;;;;5135397;27;20006;-67
2022/11/02 08:54:25;;;;;;;;;;;19.00;90.90;;;;;;5136552;27;20107;-67
2022/11/02 08:56:51;;;;;;;;;;;18.90;90.70;;;;;;5136529;27;20010;-67
2022/11/02 08:59:16;;;;;;;;;;;19.10;90.90;;;;;;5129894;27;19924;-67
2022/11/02 09:01:42;;;;;;;;;;;19.30;90.90;;;;;;5103060;27;20432;-67
2022/11/02 09:04:08;;;;;;;;;;;19.10;90.80;;;;;;5135498;27;20372;-68
2022/11/02 09:06:33;;;;;;;;;;;18.90;90.70;;;;;;5114780;28;20010;-68
2022/11/02 09:08:59;;;;;;;;;;;19.30;90.80;;;;;;5122574;27;19949;-67
2022/11/02 09:11:24;;;;;;;;;;;18.90;90.70;;;;;;5136756;27;20435;-68
2022/11/02 09:13:50;;;;;;;;;;;19.20;90.60;;;;;;5118881;27;19981;-67
2022/11/02 09:16:16;;;;;;;;;;;19.20;90.60;;;;;;5130238;27;20015;-67
2022/11/02 09:18:41;;;;;;;;;;;19.10;90.70;;;;;;5127461;27;19923;-70
2022/11/02 09:21:07;;;;;;;;;;;19.10;90.70;;;;;;5136016;27;19924;-69
2022/11/02 09:23:33;;;;;;;;;;;19.10;90.80;;;;;;5118371;27;19992;-68
2022/11/02 09:25:59;;;;;;;;;;;19.00;90.70;;;;;;5135959;27;19927;-67
2022/11/02 09:28:25;;;;;;;;;;;19.20;90.80;;;;;;5117079;27;19969;-68
2022/11/02 09:30:50;;;;;;;;;;;18.90;90.70;;;;;;5136131;27;20384;-68
2022/11/02 09:33:16;;;;;;;;;;;19.10;90.80;;;;;;5107829;28;19924;-66
2022/11/02 09:35:42;;;;;;;;;;;19.10;90.70;;;;;;5115500;28;19923;-67
2022/11/02 09:38:08;;;;;;;;;;;18.90;90.70;;;;;;5098144;28;19930;-67
2022/11/02 09:40:52;;;;;;;;;;;19.00;90.70;;;;;;5115195;28;19923;-67
2022/11/02 09:43:21;;;;;;;;;;;18.90;90.10;;;;;;5115035;28;19954;-67
2022/11/02 09:46:16;;;;;;;;;;;19.20;90.20;;;;;;5130585;27;19923;-67
2022/11/02 09:48:42;;;;;;;;;;;19.00;90.10;;;;;;5120684;27;19923;-67
2022/11/02 09:51:07;;;;;;;;;;;19.10;90.60;;;;;;5116872;27;19924;-68
2022/11/02 09:53:42;;;;;;;;;;;18.20;90.70;;;;;;5135571;27;19931;-68
2022/11/02 09:56:08;;;;;;;;;;;18.90;90.50;;;;;;5136943;27;19924;-67
2022/11/02 09:58:35;;;;;;;;;;;19.10;91.20;;;;;;5136545;27;20433;-67
2022/11/02 10:01:10;;;;;;;;;;;19.10;90.70;;;;;;5135290;27;19923;-67
2022/11/02 10:04:05;;;;;;;;;;;19.10;90.30;;;;;;5135647;27;20321;-66
2022/11/02 10:06:31;;;;;;;;;;;18.90;90.20;;;;;;5072518;28;19924;-67
2022/11/02 10:09:16;;;;;;;;;;;19.00;90.90;;;;;;5073041;28;20413;-68
2022/11/02 10:11:45;;;;;;;;;;;19.30;90.30;;;;;;5072814;28;19971;-67
2022/11/02 10:14:21;;;;;;;;;;;18.90;90.20;;;;;;5072945;28;19925;-68
2022/11/02 10:16:52;;;;;;;;;;;19.10;90.30;;;;;;5052997;28;19924;-67
2022/11/02 10:19:18;;;;;;;;;;;18.20;90.00;;;;;;5052892;28;19950;-67
2022/11/02 10:21:45;;;;;;;;;;;19.40;90.90;;;;;;5053213;28;20054;-68
2022/11/02 10:24:13;;;;;;;;;;;19.20;90.80;;;;;;5035424;28;19921;-68
2022/11/02 10:26:42;;;;;;;;;;;19.10;90.20;;;;;;5053062;28;20470;-68
2022/11/02 10:29:13;;;;;;;;;;;19.50;90.80;;;;;;5019638;28;19933;-68
2022/11/02 10:31:39;;;;;;;;;;;19.30;90.10;;;;;;5052597;28;20042;-68
2022/11/02 10:34:12;;;;;;;;;;;19.20;90.70;;;;;;5019449;28;19991;-67
2022/11/02 10:36:49;;;;;;;;;;;19.60;90.10;;;;;;5035955;28;19925;-67
2022/11/02 10:39:20;;;;;;;;;;;19.80;90.20;;;;;;5052566;28;19925;-68
2022/11/02 10:41:47;;;;;;;;;;;19.40;90.10;;;;;;5036600;28;19924;-67
2022/11/02 10:44:25;;;;;;;;;;;19.60;90.90;;;;;;5114180;28;20289;-68
2022/11/02 10:46:54;;;;;;;;;;;19.20;90.00;;;;;;5115149;28;19974;-67
2022/11/02 10:49:26;;;;;;;;;;;19.10;90.00;;;;;;5113781;28;19973;-67
2022/11/02 10:51:51;;;;;;;;;;;19.00;90.30;;;;;;5096653;28;19932;-68
2022/11/02 10:54:17;;;;;;;;;;;19.30;90.70;;;;;;5113722;28;19924;-67
2022/11/02 10:56:45;;;;;;;;;;;19.30;90.40;;;;;;5096554;28;20011;-68
2022/11/02 10:59:18;;;;;;;;;;;19.10;90.30;;;;;;5093039;28;20365;-68
2022/11/02 11:01:44;;;;;;;;;;;19.20;90.00;;;;;;5093175;28;19924;-68
2022/11/02 11:04:23;;;;;;;;;;;19.30;90.70;;;;;;5076347;28;19928;-68
2022/11/02 11:06:48;;;;;;;;;;;19.30;90.00;;;;;;5093103;28;19931;-68
2022/11/02 11:09:15;;;;;;;;;;;19.50;90.60;;;;;;5092953;28;19924;-67
2022/11/02 11:11:41;;;;;;;;;;;19.50;90.50;;;;;;5075910;28;19928;-67
2022/11/02 11:14:12;;;;;;;;;;;19.70;90.40;;;;;;5076472;28;19924;-68
2022/11/02 11:16:42;;;;;;;;;;;19.50;90.20;;;;;;5114858;27;19923;-67
2022/11/02 11:19:28;;;;;;;;;;;19.50;88.90;;;;;;5100045;27;19927;-68
2022/11/02 11:21:54;;;;;;;;;;;19.70;90.10;;;;;;5126290;27;19924;-69
2022/11/02 11:24:19;;;;;;;;;;;19.60;89.60;;;;;;5116575;28;19923;-69
2022/11/02 11:26:45;;;;;;;;;;;19.50;89.50;;;;;;5133723;27;20014;-69
2022/11/02 11:29:20;;;;;;;;;;;19.80;89.60;;;;;;5110194;28;19931;-70
2022/11/02 11:31:46;;;;;;;;;;;19.80;89.80;;;;;;5115174;28;19971;-68
2022/11/02 11:34:20;;;;;;;;;;;19.80;89.50;;;;;;5133313;27;19945;-69
2022/11/02 11:36:46;;;;;;;;;;;19.90;89.60;;;;;;5111773;27;19931;-69
2022/11/02 11:39:21;;;;;;;;;;;19.60;89.00;;;;;;5132600;27;20330;-69
2022/11/02 11:41:46;;;;;;;;;;;20.00;87.90;;;;;;5111541;28;19931;-68
2022/11/02 11:44:13;;;;;;;;;;;19.70;88.40;;;;;;5096904;28;19923;-69
2022/11/02 11:47:08;;;;;;;;;;;19.60;88.80;;;;;;5115128;28;19941;-68
2022/11/02 11:49:34;;;;;;;;;;;19.70;87.30;;;;;;5111497;28;19930;-69
2022/11/02 11:52:00;;;;;;;;;;;20.00;88.60;;;;;;5116931;27;19967;-68
2022/11/02 11:54:29;;;;;;;;;;;20.00;88.30;;;;;;5120883;27;19927;-68
2022/11/02 11:56:55;;;;;;;;;;;20.20;87.10;;;;;;5116693;27;20423;-69
2022/11/02 11:59:22;;;;;;;;;;;22.40;89.90;;;;;;5120580;27;20436;-70
2022/11/02 12:01:48;;;;;;;;;;;20.10;88.50;;;;;;5136986;27;19928;-69
2022/11/02 12:04:13;;;;;;;;;;;20.40;88.80;;;;;;5120399;27;19930;-69
2022/11/02 12:06:39;;;;;;;;;;;20.40;88.60;;;;;;5100149;28;19950;-69
2022/11/02 12:09:08;;;;;;;;;;;19.90;88.20;;;;;;5132647;27;19930;-69
2022/11/02 12:11:49;;;;;;;;;;;20.30;86.70;;;;;;5137353;27;19993;-69
2022/11/02 12:14:33;;;;;;;;;;;19.70;86.20;;;;;;5137082;27;19930;-69
2022/11/02 12:16:59;;;;;;;;;;;20.40;86.40;;;;;;5137516;27;19927;-68
2022/11/02 12:19:35;;;;;;;;;;;20.40;87.60;;;;;;5136706;27;20281;-69
2022/11/02 12:22:11;;;;;;;;;;;20.40;85.90;;;;;;5120929;27;20622;-69
2022/11/02 12:24:37;;;;;;;;;;;20.60;85.90;;;;;;5099496;28;19924;-68
2022/11/02 12:27:03;;;;;;;;;;;20.50;86.90;;;;;;5116851;28;19974;-68
2022/11/02 12:29:47;;;;;;;;;;;20.40;87.60;;;;;;5131514;27;20415;-69
2022/11/02 12:32:23;;;;;;;;;;;20.50;86.00;;;;;;5136787;27;20376;-69
2022/11/02 12:34:58;;;;;;;;;;;20.40;85.90;;;;;;5120143;27;19988;-69
2022/11/02 12:37:44;;;;;;;;;;;20.80;86.10;;;;;;5136066;27;19924;-68
2022/11/02 12:40:10;;;;;;;;;;;20.70;85.90;;;;;;5131130;27;20388;-69
2022/11/02 12:42:40;;;;;;;;;;;21.30;87.40;;;;;;5136916;27;20295;-69
2022/11/02 12:45:16;;;;;;;;;;;20.40;85.80;;;;;;5119542;27;20400;-69
2022/11/02 12:47:51;;;;;;;;;;;20.50;85.90;;;;;;5119518;27;19977;-69
2022/11/02 12:50:17;;;;;;;;;;;21.30;86.50;;;;;;5136877;27;19923;-70
2022/11/02 12:52:42;;;;;;;;;;;20.10;86.80;;;;;;5136530;27;20304;-69
2022/11/02 12:55:12;;;;;;;;;;;20.20;87.90;;;;;;5136846;27;20385;-69
2022/11/02 12:57:38;;;;;;;;;;;20.30;87.70;;;;;;5119381;27;19968;-67
2022/11/02 13:00:05;;;;;;;;;;;19.80;86.70;;;;;;5119652;27;19924;-67
2022/11/02 13:02:31;;;;;;;;;;;19.90;86.80;;;;;;5119372;27;19923;-67
2022/11/02 13:05:23;;;;;;;;;;;19.80;86.70;;;;;;5120417;27;19931;-66
2022/11/02 13:08:15;;;;;;;;;;;19.80;85.50;;;;;;5134018;27;20384;-69
2022/11/02 13:10:59;;;;;;;;;;;20.00;85.60;;;;;;5120616;27;19931;-69
2022/11/02 13:13:30;;;;;;;;;;;19.90;85.60;;;;;;5118932;27;20018;-68
2022/11/02 13:15:56;;;;;;;;;;;18.30;84.70;;;;;;5103826;28;19924;-68
2022/11/02 13:18:28;;;;;;;;;;;20.10;87.50;;;;;;5098785;28;19924;-68
2022/11/02 13:20:55;;;;;;;;;;;20.10;85.70;;;;;;5098371;28;19974;-68
2022/11/02 13:23:32;;;;;;;;;;;21.80;88.50;;;;;;5098438;28;20056;-67
2022/11/02 13:26:21;;;;;;;;;;;19.80;85.70;;;;;;5110228;28;19923;-68
2022/11/02 13:28:47;;;;;;;;;;;19.80;85.80;;;;;;5107727;28;20293;-67
2022/11/02 13:31:14;;;;;;;;;;;19.70;87.10;;;;;;5095361;28;19928;-68
2022/11/02 13:33:44;;;;;;;;;;;19.50;87.20;;;;;;5096339;28;19935;-68
2022/11/02 13:36:09;;;;;;;;;;;19.80;85.80;;;;;;5078276;28;19924;-69
2022/11/02 13:38:52;;;;;;;;;;;19.60;86.70;;;;;;5078220;28;19931;-69
2022/11/02 13:41:37;;;;;;;;;;;19.70;86.10;;;;;;5077846;28;20363;-67
2022/11/02 13:44:15;;;;;;;;;;;19.60;86.00;;;;;;5077856;28;19924;-68
2022/11/02 13:46:59;;;;;;;;;;;19.60;86.10;;;;;;5112000;28;20273;-68
2022/11/02 13:49:33;;;;;;;;;;;19.60;86.20;;;;;;5114870;28;19945;-68
2022/11/02 13:52:02;;;;;;;;;;;19.80;86.30;;;;;;5097861;28;19989;-68
2022/11/02 13:54:32;;;;;;;;;;;19.30;87.50;;;;;;5097919;28;19923;-69
2022/11/02 13:56:58;;;;;;;;;;;19.60;87.80;;;;;;5114861;28;20014;-68
2022/11/02 13:59:28;;;;;;;;;;;19.50;87.40;;;;;;5115507;28;19971;-68
2022/11/02 14:01:54;;;;;;;;;;;19.50;86.40;;;;;;5115061;28;19924;-68
2022/11/02 14:04:19;;;;;;;;;;;19.30;87.60;;;;;;5080847;28;20006;-68
2022/11/02 14:06:53;;;;;;;;;;;19.20;87.60;;;;;;5114494;28;20012;-68
2022/11/02 14:09:22;;;;;;;;;;;19.30;86.60;;;;;;5097598;28;19928;-68
2022/11/02 14:11:48;;;;;;;;;;;19.50;88.00;;;;;;5078771;28;20416;-69
2022/11/02 14:14:15;;;;;;;;;;;19.40;87.50;;;;;;5104940;27;19931;-67
2022/11/02 14:16:41;;;;;;;;;;;19.20;87.60;;;;;;5118227;27;19976;-66
2022/11/02 14:19:19;;;;;;;;;;;19.20;87.50;;;;;;5134878;27;19975;-66
2022/11/02 14:21:51;;;;;;;;;;;19.50;86.80;;;;;;5115321;27;19927;-67
2022/11/02 14:24:32;;;;;;;;;;;19.10;86.70;;;;;;5134664;27;19928;-66
2022/11/02 14:26:58;;;;;;;;;;;19.40;86.90;;;;;;5117996;27;20377;-66
2022/11/02 14:29:47;;;;;;;;;;;19.30;88.20;;;;;;5111804;27;19973;-69
2022/11/02 14:32:13;;;;;;;;;;;19.20;86.80;;;;;;5119645;27;19924;-68
2022/11/02 14:34:59;;;;;;;;;;;19.10;87.80;;;;;;5125365;27;20388;-68
2022/11/02 14:37:37;;;;;;;;;;;19.40;86.90;;;;;;5134521;27;19924;-67
2022/11/02 14:40:16;;;;;;;;;;;19.40;86.80;;;;;;5121112;27;19930;-67